Terminal Aerodrome Forecast
Issued by NWS Knoxville/Tri Cities, TN

Home | Current Version | Previous Version | Text Only | Print | Product List | Glossary On
Versions: 1 2 3 4 5 6 7 8 9 10 11 12 13 14
000
FTUS44 KMRX 011725
TAFCHA
TAF
KCHA 011725Z 0118/0218 21006KT P6SM BKN035
     FM012000 21008KT P6SM VCTS BKN040CB
      TEMPO 0120/0124 4SM -TSRA SCT015 BKN035CB
     FM020100 VRB03KT P6SM SCT050 OVC200
     FM020900 VRB03KT P6SM SCT015 BKN200
     FM021500 19010KT P6SM SCT020 BKN100=

USA.gov is the U.S. government's official web portal to all federal, state and local government web resources and services.